createdAt,value
2019-01-25T00:02:15.957Z,99665.14
2019-01-25T00:04:47.050Z,99664.20
2019-01-25T00:07:18.061Z,99666.84
2019-01-25T00:09:48.901Z,99660.47
2019-01-25T00:12:19.673Z,99667.88
2019-01-25T00:14:50.463Z,99674.84
2019-01-25T00:17:22.584Z,99666.81
2019-01-25T00:19:53.449Z,99673.31
2019-01-25T00:22:24.226Z,99664.92
2019-01-25T00:24:55.082Z,99664.17
2019-01-25T00:27:25.913Z,99665.42
2019-01-25T00:29:57.079Z,99670.95
2019-01-25T00:32:27.926Z,99667.03
2019-01-25T00:34:59.061Z,99662.87
2019-01-25T00:37:29.828Z,99670.70
2019-01-25T00:40:06.083Z,99668.41
2019-01-25T00:42:33.272Z,99668.31
2019-01-25T00:45:04.641Z,99669.77
2019-01-25T00:47:35.657Z,99667.63
2019-01-25T00:50:11.705Z,99663.55
2019-01-25T00:52:43.142Z,99664.52
2019-01-25T00:55:14.085Z,99665.45
2019-01-25T00:57:44.926Z,99668.93
2019-01-25T01:00:18.427Z,99674.06
2019-01-25T01:02:49.352Z,99672.01
2019-01-25T01:05:20.922Z,99674.22
2019-01-25T01:07:52.838Z,99676.89
2019-01-25T01:10:23.721Z,99682.20
2019-01-25T01:12:54.745Z,99686.21
2019-01-25T01:15:25.550Z,99678.47
2019-01-25T01:17:56.436Z,99685.44
2019-01-25T01:20:27.525Z,99693.54
2019-01-25T01:22:58.453Z,99690.39
2019-01-25T01:25:29.381Z,99695.95
2019-01-25T01:28:00.624Z,99695.00
2019-01-25T01:30:31.724Z,99697.23
2019-01-25T01:33:02.802Z,99691.53
2019-01-25T01:35:34.730Z,99689.59
2019-01-25T01:38:05.579Z,99688.52
2019-01-25T01:40:36.650Z,99700.09
2019-01-25T01:43:07.803Z,99704.12
2019-01-25T01:45:38.994Z,99703.80
2019-01-25T01:48:10.049Z,99701.69
2019-01-25T01:50:41.280Z,99701.66
2019-01-25T01:53:12.137Z,99692.57
2019-01-25T01:55:43.370Z,99698.30
2019-01-25T01:58:14.148Z,99697.52
2019-01-25T02:00:45.004Z,99702.89
2019-01-25T02:03:16.075Z,99699.00
2019-01-25T02:05:46.960Z,99698.32
2019-01-25T02:08:18.027Z,99698.73
2019-01-25T02:10:48.817Z,99702.55
2019-01-25T02:13:19.669Z,99708.50
2019-01-25T02:15:50.783Z,99712.51
2019-01-25T02:18:21.631Z,99708.99
2019-01-25T02:20:52.609Z,99703.98
2019-01-25T02:23:23.503Z,99704.20
2019-01-25T02:25:54.889Z,99701.52
2019-01-25T02:28:25.899Z,99698.56
2019-01-25T02:30:56.689Z,99703.77
2019-01-25T02:33:29.275Z,99700.95
2019-01-25T02:36:00.624Z,99696.64
2019-01-25T02:38:31.729Z,99694.07
2019-01-25T02:41:02.672Z,99696.88
2019-01-25T02:43:33.892Z,99699.27
2019-01-25T02:46:05.012Z,99701.97
2019-01-25T02:48:35.798Z,99698.56
2019-01-25T02:51:06.814Z,99698.89
2019-01-25T02:53:37.696Z,99699.75
2019-01-25T02:56:08.620Z,99695.85
2019-01-25T02:58:39.639Z,99693.55
2019-01-25T03:01:10.525Z,99698.15
2019-01-25T03:03:41.618Z,99699.05
2019-01-25T03:06:12.720Z,99694.73
2019-01-25T03:08:43.820Z,99689.89
2019-01-25T03:11:15.003Z,99689.64
2019-01-25T03:13:46.026Z,99699.14
2019-01-25T03:16:17.059Z,99702.34
2019-01-25T03:18:48.055Z,99697.60
2019-01-25T03:21:18.928Z,99699.74
2019-01-25T03:23:49.991Z,99705.59
2019-01-25T03:26:21.070Z,99712.56
2019-01-25T03:28:52.129Z,99713.41
2019-01-25T03:31:23.185Z,99702.61
2019-01-25T03:33:54.042Z,99700.06
2019-01-25T03:36:24.978Z,99703.89
2019-01-25T03:38:56.227Z,99702.13
2019-01-25T03:41:27.172Z,99703.13
2019-01-25T03:43:58.181Z,99709.09
2019-01-25T03:46:29.122Z,99705.85
2019-01-25T03:48:59.910Z,99705.31
2019-01-25T03:51:31.016Z,99705.83
2019-01-25T03:54:02.103Z,99707.44
2019-01-25T03:56:32.943Z,99706.75
2019-01-25T03:59:03.843Z,99704.84
2019-01-25T04:01:34.933Z,99698.55
2019-01-25T04:04:05.979Z,99706.17
2019-01-25T04:06:36.803Z,99707.80
2019-01-25T04:09:09.694Z,99709.44
2019-01-25T04:11:40.677Z,99709.44
2019-01-25T04:14:11.508Z,99714.53
2019-01-25T04:16:42.485Z,99706.11
2019-01-25T04:19:13.598Z,99702.87
2019-01-25T04:21:44.427Z,99714.19
2019-01-25T04:24:15.202Z,99720.36
2019-01-25T04:26:46.141Z,99721.14
2019-01-25T04:29:16.921Z,99726.80
2019-01-25T04:31:47.781Z,99728.06
2019-01-25T04:34:18.732Z,99720.86
2019-01-25T04:36:49.546Z,99718.80
2019-01-25T04:39:20.564Z,99723.52
2019-01-25T04:41:51.448Z,99726.91
2019-01-25T04:44:22.413Z,99718.51
2019-01-25T04:46:53.204Z,99720.91
2019-01-25T04:49:24.107Z,99715.15
2019-01-25T04:51:55.251Z,99717.98
2019-01-25T04:54:26.534Z,99716.52
2019-01-25T04:56:57.633Z,99721.05
2019-01-25T04:59:30.184Z,99725.37
2019-01-25T05:02:01.057Z,99723.42
2019-01-25T05:04:35.928Z,99727.44
2019-01-25T05:07:06.875Z,99727.66
2019-01-25T05:09:39.461Z,99717.58
2019-01-25T05:12:10.322Z,99716.95
2019-01-25T05:14:41.342Z,99720.64
2019-01-25T05:17:12.483Z,99723.18
2019-01-25T05:19:43.500Z,99727.44
2019-01-25T05:22:14.747Z,99738.52
2019-01-25T05:24:45.760Z,99739.39
2019-01-25T05:27:16.843Z,99746.95
2019-01-25T05:29:55.454Z,99746.84
2019-01-25T05:32:26.606Z,99742.50
2019-01-25T05:34:57.682Z,99739.22
2019-01-25T05:37:28.701Z,99737.08
2019-01-25T05:39:59.688Z,99742.42
2019-01-25T05:42:30.821Z,99746.78
2019-01-25T05:45:07.962Z,99752.36
2019-01-25T05:47:39.015Z,99752.73
2019-01-25T05:50:11.167Z,99750.44
2019-01-25T05:52:42.195Z,99763.83
2019-01-25T05:55:17.304Z,99757.05
2019-01-25T05:57:48.437Z,99777.09
2019-01-25T06:00:27.567Z,99771.71
2019-01-25T06:03:08.134Z,99758.98
2019-01-25T06:05:39.129Z,99757.84
2019-01-25T06:08:43.534Z,99758.65
2019-01-25T06:11:09.655Z,99765.64
2019-01-25T06:13:41.521Z,99763.23
2019-01-25T06:16:12.502Z,99764.77
2019-01-25T06:18:43.363Z,99773.68
2019-01-25T06:21:14.441Z,99766.14
2019-01-25T06:23:45.284Z,99768.91
2019-01-25T06:26:16.140Z,99765.02
2019-01-25T06:28:51.464Z,99775.22
2019-01-25T06:31:22.312Z,99784.78
2019-01-25T06:33:53.176Z,99791.02
2019-01-25T06:36:24.202Z,99795.66
2019-01-25T06:38:55.060Z,99789.74
2019-01-25T06:41:26.494Z,99790.94
2019-01-25T06:43:57.609Z,99789.82
2019-01-25T06:46:29.354Z,99786.89
2019-01-25T06:49:00.468Z,99782.02
2019-01-25T06:51:31.241Z,99787.03
2019-01-25T06:54:02.282Z,99790.50
2019-01-25T06:56:33.087Z,99799.98
2019-01-25T06:59:12.431Z,99803.47
2019-01-25T07:02:05.211Z,99807.39
2019-01-25T07:04:37.864Z,99818.84
2019-01-25T07:07:17.657Z,99825.98
2019-01-25T07:09:48.440Z,99830.66
2019-01-25T07:12:19.217Z,99830.05
2019-01-25T07:14:50.272Z,99833.62
2019-01-25T07:17:22.392Z,99827.61
2019-01-25T07:19:53.489Z,99834.25
2019-01-25T07:22:24.398Z,99841.59
2019-01-25T07:24:57.288Z,99834.91
2019-01-25T07:27:28.391Z,99827.58
2019-01-25T07:29:59.693Z,99828.30
2019-01-25T07:32:30.543Z,99834.75
2019-01-25T07:35:01.732Z,99832.59
2019-01-25T07:37:32.580Z,99833.13
2019-01-25T07:40:04.529Z,99836.02
2019-01-25T07:42:35.717Z,99841.77
2019-01-25T07:45:06.906Z,99845.89
2019-01-25T07:47:37.787Z,99847.65
2019-01-25T07:50:08.688Z,99845.46
2019-01-25T07:52:40.086Z,99841.05
2019-01-25T07:55:11.345Z,99846.11
2019-01-25T07:57:42.444Z,99841.37
2019-01-25T08:00:13.937Z,99838.58
2019-01-25T08:02:44.925Z,99839.93
2019-01-25T08:05:16.029Z,99843.22
2019-01-25T08:07:47.238Z,99841.64
2019-01-25T08:10:18.459Z,99836.46
2019-01-25T08:12:50.270Z,99847.58
2019-01-25T08:15:21.847Z,99851.78
2019-01-25T08:17:53.068Z,99851.02
2019-01-25T08:20:23.989Z,99854.67
2019-01-25T08:22:54.845Z,99854.88
2019-01-25T08:25:25.947Z,99856.14
2019-01-25T08:27:56.860Z,99853.41
2019-01-25T08:30:28.156Z,99852.32
2019-01-25T08:32:59.163Z,99850.18
2019-01-25T08:35:30.120Z,99861.66
2019-01-25T08:38:01.132Z,99855.87
2019-01-25T08:40:32.222Z,99848.92
2019-01-25T08:43:03.059Z,99846.20
2019-01-25T08:45:34.527Z,99851.86
2019-01-25T08:48:06.038Z,99856.96
2019-01-25T08:50:37.608Z,99864.37
2019-01-25T08:53:08.717Z,99868.28
2019-01-25T08:55:39.593Z,99869.16
2019-01-25T08:58:10.735Z,99875.06
2019-01-25T09:00:41.837Z,99873.55
2019-01-25T09:03:12.689Z,99867.27
2019-01-25T09:05:43.502Z,99874.72
2019-01-25T09:08:14.288Z,99866.17
2019-01-25T09:10:45.403Z,99874.74
2019-01-25T09:13:16.401Z,99873.52
2019-01-25T09:15:47.214Z,99880.41
2019-01-25T09:18:18.510Z,99872.03
2019-01-25T09:20:50.342Z,99879.05
2019-01-25T09:23:21.241Z,99881.98
2019-01-25T09:25:52.275Z,99891.23
2019-01-25T09:28:23.361Z,99897.17
2019-01-25T09:30:54.396Z,99906.42
2019-01-25T09:33:25.243Z,99902.37
2019-01-25T09:35:56.362Z,99908.08
2019-01-25T09:38:28.609Z,99910.84
2019-01-25T09:40:59.732Z,99909.84
2019-01-25T09:43:30.629Z,99911.95
2019-01-25T09:46:01.658Z,99916.56
2019-01-25T09:48:32.680Z,99904.85
2019-01-25T09:51:03.657Z,99909.59
2019-01-25T09:53:34.551Z,99913.78
2019-01-25T09:56:05.529Z,99910.04
2019-01-25T09:58:38.743Z,99915.20
2019-01-25T10:01:10.701Z,99919.49
2019-01-25T10:03:42.568Z,99924.25
2019-01-25T10:06:13.554Z,99921.78
2019-01-25T10:08:44.485Z,99913.17
2019-01-25T10:11:15.291Z,99913.84
2019-01-25T10:13:46.083Z,99908.65
2019-01-25T10:16:17.692Z,99907.20
2019-01-25T10:18:49.675Z,99897.68
2019-01-25T10:21:20.639Z,99902.18
2019-01-25T10:23:51.654Z,99893.94
2019-01-25T10:26:22.649Z,99898.86
2019-01-25T10:28:53.841Z,99902.36
2019-01-25T10:31:24.723Z,99885.30
2019-01-25T10:33:55.491Z,99890.91
2019-01-25T10:36:26.451Z,99887.91
2019-01-25T10:38:57.612Z,99883.09
2019-01-25T10:41:28.851Z,99887.41
2019-01-25T10:43:59.723Z,99886.17
2019-01-25T10:46:30.590Z,99886.45
2019-01-25T10:49:01.656Z,99890.59
2019-01-25T10:51:32.600Z,99892.86
2019-01-25T10:54:03.562Z,99895.80
2019-01-25T10:56:34.491Z,99893.55
2019-01-25T10:59:05.623Z,99895.67
2019-01-25T11:01:37.599Z,99895.83
2019-01-25T11:04:11.574Z,99888.16
2019-01-25T11:06:41.818Z,99886.31
2019-01-25T11:09:12.906Z,99886.29
2019-01-25T11:11:44.110Z,99891.03
2019-01-25T11:14:14.987Z,99885.52
2019-01-25T11:16:45.814Z,99881.14
2019-01-25T11:19:16.665Z,99879.65
2019-01-25T11:21:47.569Z,99881.78
2019-01-25T11:24:18.444Z,99876.69
2019-01-25T11:26:49.242Z,99876.35
2019-01-25T11:29:20.381Z,99875.02
2019-01-25T11:31:51.308Z,99870.32
2019-01-25T11:34:22.233Z,99879.16
2019-01-25T11:36:53.402Z,99878.19
2019-01-25T11:39:24.748Z,99881.42
2019-01-25T11:41:55.540Z,99875.72
2019-01-25T11:44:27.046Z,99876.71
2019-01-25T11:46:58.388Z,99875.93
2019-01-25T11:49:29.424Z,99878.61
2019-01-25T11:52:00.213Z,99874.98
2019-01-25T11:54:30.991Z,99877.56
2019-01-25T11:57:01.826Z,99878.86
2019-01-25T11:59:32.704Z,99875.18
2019-01-25T12:02:03.630Z,99866.69
2019-01-25T12:04:34.962Z,99864.56
2019-01-25T12:07:05.876Z,99867.86
2019-01-25T12:09:36.683Z,99864.84
2019-01-25T12:12:07.790Z,99864.86
2019-01-25T12:14:38.661Z,99864.10
2019-01-25T12:17:09.864Z,99863.95
2019-01-25T12:19:41.013Z,99867.36
2019-01-25T12:22:12.160Z,99859.09
2019-01-25T12:24:43.247Z,99865.70
2019-01-25T12:27:14.255Z,99860.98
2019-01-25T12:29:45.488Z,99869.73
2019-01-25T12:32:16.312Z,99864.03
2019-01-25T12:34:47.386Z,99871.02
2019-01-25T12:37:18.405Z,99871.27
2019-01-25T12:39:49.553Z,99869.19
2019-01-25T12:42:20.433Z,99865.49
2019-01-25T12:44:51.843Z,99872.17
2019-01-25T12:47:22.847Z,99862.75
2019-01-25T12:49:53.723Z,99867.45
2019-01-25T12:52:24.502Z,99866.84
2019-01-25T12:54:55.414Z,99863.37
2019-01-25T12:57:26.272Z,99859.53
2019-01-25T12:59:57.372Z,99863.61
2019-01-25T13:02:28.149Z,99859.10
2019-01-25T13:04:59.015Z,99849.30
2019-01-25T13:07:30.007Z,99849.29
2019-01-25T13:10:01.134Z,99847.30
2019-01-25T13:12:33.259Z,99843.85
2019-01-25T13:15:05.268Z,99838.26
2019-01-25T13:17:36.119Z,99838.38
2019-01-25T13:20:10.742Z,99842.86
2019-01-25T13:22:41.786Z,99843.62
2019-01-25T13:25:12.963Z,99843.70
2019-01-25T13:27:44.060Z,99839.58
2019-01-25T13:30:17.330Z,99839.38
2019-01-25T13:32:48.288Z,99842.70
2019-01-25T13:35:19.635Z,99845.50
2019-01-25T13:37:50.788Z,99844.17
2019-01-25T13:40:22.996Z,99850.95
2019-01-25T13:42:54.251Z,99858.16
2019-01-25T13:45:25.859Z,99855.19
2019-01-25T13:47:56.801Z,99854.63
2019-01-25T13:50:28.160Z,99856.91
2019-01-25T13:52:59.422Z,99864.50
2019-01-25T13:55:30.537Z,99862.55
2019-01-25T13:58:01.479Z,99861.27
2019-01-25T14:00:33.700Z,99857.02
2019-01-25T14:03:04.932Z,99839.13
2019-01-25T14:05:36.032Z,99833.69
2019-01-25T14:08:06.873Z,99828.41
2019-01-25T14:10:39.458Z,99832.73
2019-01-25T14:13:10.299Z,99833.96
2019-01-25T14:15:41.336Z,99833.86
2019-01-25T14:18:12.224Z,99836.99
2019-01-25T14:20:43.145Z,99841.28
2019-01-25T14:23:14.064Z,99839.89
2019-01-25T14:25:44.981Z,99841.17
2019-01-25T14:28:15.820Z,99853.77
2019-01-25T14:30:46.851Z,99860.44
2019-01-25T14:33:17.912Z,99863.44
2019-01-25T14:35:48.772Z,99863.40
2019-01-25T14:38:19.563Z,99854.08
2019-01-25T14:40:50.424Z,99856.35
2019-01-25T14:43:21.501Z,99860.00
2019-01-25T14:45:52.623Z,99856.63
2019-01-25T14:48:23.792Z,99853.27
2019-01-25T14:50:54.995Z,99845.47
2019-01-25T14:53:25.817Z,99838.06
2019-01-25T14:55:56.900Z,99839.46
2019-01-25T14:58:27.819Z,99847.15
2019-01-25T15:00:58.758Z,99848.67
2019-01-25T15:03:29.599Z,99848.95
2019-01-25T15:06:00.747Z,99844.10
2019-01-25T15:08:31.649Z,99842.47
2019-01-25T15:11:02.822Z,99831.82
2019-01-25T15:13:33.672Z,99839.86
2019-01-25T15:16:04.535Z,99843.10
2019-01-25T15:18:35.347Z,99846.22
2019-01-25T15:21:06.404Z,99854.39
2019-01-25T15:23:37.319Z,99841.90
2019-01-25T15:26:08.567Z,99848.50
2019-01-25T15:28:39.707Z,99852.95
2019-01-25T15:31:10.630Z,99855.19
2019-01-25T15:33:41.557Z,99854.23
2019-01-25T15:36:13.520Z,99858.27
2019-01-25T15:38:44.792Z,99849.58
2019-01-25T15:41:15.668Z,99858.35
2019-01-25T15:43:46.582Z,99858.31
2019-01-25T15:46:17.519Z,99860.62
2019-01-25T15:48:48.348Z,99863.94
2019-01-25T15:51:19.592Z,99861.55
2019-01-25T15:53:50.508Z,99861.22
2019-01-25T15:56:21.500Z,99863.59
2019-01-25T15:58:52.339Z,99860.59
2019-01-25T16:01:23.869Z,99856.19
2019-01-25T16:03:55.724Z,99858.81
2019-01-25T16:06:26.767Z,99850.39
2019-01-25T16:08:58.143Z,99848.02
2019-01-25T16:11:29.363Z,99848.86
2019-01-25T16:14:00.228Z,99835.89
2019-01-25T16:16:31.091Z,99833.49
2019-01-25T16:19:02.213Z,99838.33
2019-01-25T16:21:33.529Z,99839.94
2019-01-25T16:24:04.582Z,99845.61
2019-01-25T16:26:35.716Z,99848.50
2019-01-25T16:29:06.892Z,99855.58
2019-01-25T16:31:38.008Z,99852.53
2019-01-25T16:34:09.015Z,99859.84
2019-01-25T16:36:58.609Z,99855.44
2019-01-25T16:39:29.606Z,99870.87
2019-01-25T16:42:00.388Z,99880.64
2019-01-25T16:44:31.224Z,99876.45
2019-01-25T16:47:02.087Z,99877.18
2019-01-25T16:49:32.943Z,99880.17
2019-01-25T16:52:03.799Z,99886.69
2019-01-25T16:54:34.578Z,99892.69
2019-01-25T16:57:05.761Z,99892.17
2019-01-25T16:59:36.845Z,99903.44
2019-01-25T17:02:07.711Z,99904.31
2019-01-25T17:04:38.548Z,99910.60
2019-01-25T17:07:09.652Z,99897.08
2019-01-25T17:09:40.420Z,99888.95
2019-01-25T17:12:11.570Z,99891.63
2019-01-25T17:14:42.727Z,99887.28
2019-01-25T17:17:13.523Z,99883.95
2019-01-25T17:19:44.623Z,99880.26
2019-01-25T17:22:15.636Z,99878.23
2019-01-25T17:24:46.407Z,99887.13
2019-01-25T17:27:17.187Z,99884.82
2019-01-25T17:29:47.960Z,99886.47
2019-01-25T17:32:19.018Z,99886.33
2019-01-25T17:34:50.900Z,99880.48
2019-01-25T17:37:22.653Z,99889.53
2019-01-25T17:39:53.507Z,99892.86
2019-01-25T17:42:24.439Z,99883.36
2019-01-25T17:44:55.508Z,99883.77
2019-01-25T17:47:26.306Z,99884.31
2019-01-25T17:49:57.142Z,99881.31
2019-01-25T17:52:28.533Z,99870.42
2019-01-25T17:54:59.552Z,99867.03
2019-01-25T17:57:31.448Z,99864.14
2019-01-25T18:00:02.217Z,99873.86
2019-01-25T18:02:34.452Z,99876.27
2019-01-25T18:05:06.919Z,99871.23
2019-01-25T18:07:37.861Z,99881.56
2019-01-25T18:10:11.595Z,99880.48
2019-01-25T18:12:43.000Z,99875.21
2019-01-25T18:15:14.658Z,99873.38
2019-01-25T18:17:45.753Z,99862.45
2019-01-25T18:20:17.002Z,99850.11
2019-01-25T18:22:47.955Z,99854.16
2019-01-25T18:25:32.444Z,99849.27
2019-01-25T18:28:03.616Z,99847.69
2019-01-25T18:30:41.503Z,99853.36
2019-01-25T18:33:12.484Z,99856.28
2019-01-25T18:35:43.551Z,99867.17
2019-01-25T18:38:14.426Z,99851.13
2019-01-25T18:40:45.679Z,99842.21
2019-01-25T18:43:17.622Z,99841.05
2019-01-25T18:45:48.512Z,99834.89
2019-01-25T18:48:19.663Z,99837.61
2019-01-25T18:50:50.561Z,99844.22
2019-01-25T18:53:21.946Z,99827.11
2019-01-25T18:55:52.859Z,99831.17
2019-01-25T18:58:23.740Z,99840.78
2019-01-25T19:00:55.488Z,99846.30
2019-01-25T19:03:26.450Z,99841.18
2019-01-25T19:05:57.497Z,99844.11
2019-01-25T19:08:28.541Z,99832.00
2019-01-25T19:10:59.535Z,99834.41
2019-01-25T19:13:30.560Z,99833.39
2019-01-25T19:16:01.808Z,99828.89
2019-01-25T19:18:32.758Z,99830.83
2019-01-25T19:21:03.769Z,99837.41
2019-01-25T19:23:34.630Z,99834.77
2019-01-25T19:26:05.724Z,99828.83
2019-01-25T19:28:36.601Z,99830.27
2019-01-25T19:31:07.469Z,99830.65
2019-01-25T19:33:38.707Z,99827.95
2019-01-25T19:36:09.632Z,99836.49
2019-01-25T19:38:40.846Z,99827.33
2019-01-25T19:41:11.923Z,99834.34
2019-01-25T19:43:42.800Z,99830.27
2019-01-25T19:46:13.833Z,99826.71
2019-01-25T19:48:44.711Z,99821.82
2019-01-25T19:51:15.854Z,99830.77
2019-01-25T19:53:46.951Z,99827.05
2019-01-25T19:56:18.341Z,99831.27
2019-01-25T19:58:49.201Z,99816.81
2019-01-25T20:01:19.972Z,99827.94
2019-01-25T20:03:50.840Z,99821.31
2019-01-25T20:06:21.616Z,99817.05
2019-01-25T20:08:52.484Z,99815.86
2019-01-25T20:11:23.636Z,99820.03
2019-01-25T20:13:54.657Z,99808.34
2019-01-25T20:16:25.960Z,99799.62
2019-01-25T20:18:57.060Z,99804.25
2019-01-25T20:21:28.005Z,99799.78
2019-01-25T20:23:58.801Z,99803.02
2019-01-25T20:26:30.545Z,99797.79
2019-01-25T20:29:01.637Z,99805.89
2019-01-25T20:31:32.409Z,99804.13
2019-01-25T20:34:03.790Z,99798.39
2019-01-25T20:36:34.985Z,99800.19
2019-01-25T20:39:08.079Z,99796.70
2019-01-25T20:41:39.579Z,99793.78
2019-01-25T20:44:10.367Z,99798.10
2019-01-25T20:46:41.264Z,99802.45
2019-01-25T20:49:12.360Z,99798.27
2019-01-25T20:51:43.443Z,99795.55
2019-01-25T20:54:14.313Z,99790.55
2019-01-25T20:56:45.222Z,99795.41
2019-01-25T20:59:16.307Z,99795.01
2019-01-25T21:01:47.396Z,99795.56
2019-01-25T21:04:18.362Z,99791.77
2019-01-25T21:06:49.218Z,99791.62
2019-01-25T21:09:20.092Z,99796.05
2019-01-25T21:11:51.172Z,99785.83
2019-01-25T21:14:22.205Z,99780.53
2019-01-25T21:16:53.052Z,99786.56
2019-01-25T21:19:24.069Z,99781.86
2019-01-25T21:21:55.090Z,99776.52
2019-01-25T21:24:26.117Z,99772.40
2019-01-25T21:26:56.959Z,99778.86
2019-01-25T21:29:28.098Z,99783.06
2019-01-25T21:31:58.966Z,99778.67
2019-01-25T21:34:29.775Z,99777.77
2019-01-25T21:37:00.794Z,99777.00
2019-01-25T21:39:31.907Z,99768.56
2019-01-25T21:42:02.699Z,99763.55
2019-01-25T21:44:33.805Z,99770.49
2019-01-25T21:47:05.026Z,99759.03
2019-01-25T21:49:36.119Z,99762.46
2019-01-25T21:52:07.046Z,99758.63
2019-01-25T21:54:37.909Z,99756.25
2019-01-25T21:57:08.781Z,99752.53
2019-01-25T21:59:39.721Z,99748.47
2019-01-25T22:02:10.581Z,99739.05
2019-01-25T22:04:41.441Z,99748.47
2019-01-25T22:07:12.527Z,99728.69
2019-01-25T22:09:43.630Z,99740.59
2019-01-25T22:12:14.492Z,99733.80
2019-01-25T22:14:45.368Z,99726.56
2019-01-25T22:17:16.221Z,99714.48
2019-01-25T22:19:47.409Z,99716.92
2019-01-25T22:22:18.492Z,99723.94
2019-01-25T22:24:49.637Z,99705.81
2019-01-25T22:27:21.015Z,99711.05
2019-01-25T22:29:52.361Z,99711.77
2019-01-25T22:32:23.593Z,99707.86
2019-01-25T22:34:54.763Z,99703.27
2019-01-25T22:37:25.859Z,99713.30
2019-01-25T22:39:57.037Z,99699.09
2019-01-25T22:42:27.812Z,99700.21
2019-01-25T22:44:58.682Z,99694.73
2019-01-25T22:47:29.464Z,99699.26
2019-01-25T22:50:00.268Z,99703.49
2019-01-25T22:52:31.351Z,99701.81
2019-01-25T22:55:02.149Z,99703.09
2019-01-25T22:57:33.068Z,99700.25
2019-01-25T23:00:05.969Z,99707.41
2019-01-25T23:02:38.620Z,99701.97
2019-01-25T23:05:40.356Z,99700.77
2019-01-25T23:08:11.276Z,99691.62
2019-01-25T23:10:42.378Z,99691.92
2019-01-25T23:13:16.289Z,99679.03
2019-01-25T23:15:47.155Z,99679.14
2019-01-25T23:18:18.093Z,99689.52
2019-01-25T23:20:49.172Z,99682.30
2019-01-25T23:23:20.023Z,99660.22
2019-01-25T23:25:51.891Z,99683.42
2019-01-25T23:28:22.741Z,99689.37
2019-01-25T23:30:53.552Z,99684.34
2019-01-25T23:33:24.324Z,99679.85
2019-01-25T23:35:55.187Z,99678.34
2019-01-25T23:38:25.931Z,99672.28
2019-01-25T23:40:57.050Z,99676.19
2019-01-25T23:43:28.073Z,99675.79
2019-01-25T23:45:58.934Z,99674.03
2019-01-25T23:48:29.749Z,99664.69
2019-01-25T23:51:00.776Z,99669.00
2019-01-25T23:53:31.784Z,99662.72
2019-01-25T23:56:02.575Z,99659.25
2019-01-25T23:58:34.564Z,99662.69
